^^
Station Historical Data
Daily Summary for January 8, 2021 Units:  English    Metric   Both
Daily Weekly Monthly Yearly
  High: Low: Average:
Temperature: 31.2 °F 28 °F 29.2 °F
Dew Point: 26 °F 22.4 °F 24.1 °F
Humidity: 86% 77% 81%
Wind Speed: 6mph 2mph 3.8mph
Wind Gust: 13mph - -
Wind- - ESE
Pressure: 30.30 in 30.20 in -
Precipitation: 0.00 in    
 
 
Tabular Data for January 8, 2021
Time Temperature Dew Point Pressure Wind Wind Speed Wind Gust Humidity Rainfall Rate (Hourly) solar
00:05 31.1 °F 26 °F 30.30 in ENE 3 mph 3 mph 81% 0.00 in 0 W/m2
00:15 31.1 °F 26 °F 30.30 in NE 3 mph 4 mph 81% 0.00 in 0 W/m2
00:25 31.1 °F 25.7 °F 30.30 in North 4 mph 4 mph 80% 0.00 in 0 W/m2
00:35 31.2 °F 25.7 °F 30.29 in NE 3 mph 3 mph 80% 0.00 in 0 W/m2
00:45 31.1 °F 25.7 °F 30.29 in North 2 mph 2 mph 80% 0.00 in 0 W/m2
00:55 31.1 °F 25.7 °F 30.29 in ENE 4 mph 4 mph 80% 0.00 in 0 W/m2
01:05 31.1 °F 25.7 °F 30.29 in NE 4 mph 7 mph 80% 0.00 in 0 W/m2
01:15 31 °F 25.2 °F 30.29 in ENE 4 mph 4 mph 79% 0.00 in 0 W/m2
01:25 30.9 °F 25.5 °F 30.29 in NE 3 mph 3 mph 80% 0.00 in 0 W/m2
01:35 30.8 °F 25.1 °F 30.28 in NW 3 mph 3 mph 79% 0.00 in 0 W/m2
01:45 30.7 °F 25 °F 30.29 in East 2 mph 2 mph 79% 0.00 in 0 W/m2
01:55 30.6 °F 24.6 °F 30.29 in NNW 3 mph 3 mph 78% 0.00 in 0 W/m2
02:05 30.5 °F 24.5 °F 30.29 in NNW 3 mph 4 mph 78% 0.00 in 0 W/m2
02:15 30.5 °F 24.8 °F 30.29 in NNE 3 mph 3 mph 79% 0.00 in 0 W/m2
02:25 30.5 °F 24.8 °F 30.29 in North 2 mph 2 mph 79% 0.00 in 0 W/m2
02:35 30.5 °F 25.1 °F 30.29 in NNE 2 mph 2 mph 80% 0.00 in 0 W/m2
02:45 30.4 °F 24.7 °F 30.29 in NE 2 mph 2 mph 79% 0.00 in 0 W/m2
02:55 30.3 °F 24.6 °F 30.29 in NE 2 mph 4 mph 79% 0.00 in 0 W/m2
03:05 30.4 °F 24.7 °F 30.29 in North 2 mph 8 mph 79% 0.00 in 0 W/m2
03:15 30.4 °F 24.4 °F 30.29 in NE 3 mph 4 mph 78% 0.00 in 0 W/m2
03:25 30.5 °F 24.5 °F 30.29 in NE 3 mph 3 mph 78% 0.00 in 0 W/m2
03:35 30.4 °F 24.4 °F 30.29 in North 3 mph 6 mph 78% 0.00 in 0 W/m2
03:45 30.5 °F 24.8 °F 30.28 in NE 2 mph 3 mph 79% 0.00 in 0 W/m2
03:55 30.5 °F 24.8 °F 30.28 in NE 3 mph 5 mph 79% 0.00 in 0 W/m2
04:05 30.4 °F 25 °F 30.28 in NNW 3 mph 4 mph 80% 0.00 in 0 W/m2
04:15 30.3 °F 24.9 °F 30.28 in NE 4 mph 4 mph 80% 0.00 in 0 W/m2
04:25 30.1 °F 24.7 °F 30.27 in ENE 3 mph 3 mph 80% 0.00 in 0 W/m2
04:35 30 °F 24.9 °F 30.27 in NE 3 mph 3 mph 81% 0.00 in 0 W/m2
04:45 29.8 °F 24.4 °F 30.27 in ENE 3 mph 3 mph 80% 0.00 in 0 W/m2
04:55 29.7 °F 24.6 °F 30.27 in ENE 3 mph 3 mph 81% 0.00 in 0 W/m2
05:05 29.5 °F 24.4 °F 30.27 in NE 4 mph 4 mph 81% 0.00 in 0 W/m2
05:15 29.4 °F 24.3 °F 30.26 in NE 3 mph 3 mph 81% 0.00 in 0 W/m2
05:25 29.3 °F 24.2 °F 30.26 in NE 4 mph 4 mph 81% 0.00 in 0 W/m2
05:35 29.3 °F 24.2 °F 30.26 in NE 2 mph 3 mph 81% 0.00 in 0 W/m2
05:45 29.2 °F 24.1 °F 30.27 in NNE 3 mph 3 mph 81% 0.00 in 0 W/m2
05:55 29.2 °F 24.4 °F 30.26 in NNE 3 mph 5 mph 82% 0.00 in 0 W/m2
06:05 29.1 °F 24 °F 30.26 in NW 4 mph 4 mph 81% 0.00 in 0 W/m2
06:15 29.1 °F 24 °F 30.26 in North 4 mph 6 mph 81% 0.00 in 0 W/m2
06:25 29 °F 23.9 °F 30.26 in NE 5 mph 5 mph 81% 0.00 in 0 W/m2
06:35 28.8 °F 23.7 °F 30.26 in NE 4 mph 4 mph 81% 0.00 in 0 W/m2
06:45 28.8 °F 24 °F 30.26 in NNE 4 mph 4 mph 82% 0.00 in 0 W/m2
06:55 28.7 °F 23.9 °F 30.26 in NNW 4 mph 13 mph 82% 0.00 in 0 W/m2
07:05 28.7 °F 23.9 °F 30.26 in North 4 mph 6 mph 82% 0.00 in 0 W/m2
07:15 28.5 °F 23.7 °F 30.26 in East 4 mph 4 mph 82% 0.00 in 0 W/m2
07:25 28.5 °F 23.7 °F 30.26 in NNE 4 mph 5 mph 82% 0.00 in 0 W/m2
07:35 28.3 °F 23.5 °F 30.26 in ENE 4 mph 5 mph 82% 0.00 in 0 W/m2
07:45 28.2 °F 23.4 °F 30.26 in North 3 mph 3 mph 82% 0.00 in 0 W/m2
07:55 28.2 °F 23.4 °F 30.26 in NE 4 mph 4 mph 82% 0.00 in 0 W/m2
08:05 28.2 °F 23.7 °F 30.26 in North 4 mph 7 mph 83% 0.00 in 0 W/m2
08:15 28.1 °F 23.3 °F 30.27 in North 4 mph 9 mph 82% 0.00 in 5 W/m2
08:25 28.1 °F 23.6 °F 30.27 in East 5 mph 5 mph 83% 0.00 in 9 W/m2
08:35 28.1 °F 23.6 °F 30.27 in NE 4 mph 4 mph 83% 0.00 in 14 W/m2
08:45 28.2 °F 24 °F 30.27 in ENE 4 mph 4 mph 84% 0.00 in 19 W/m2
08:55 28.2 °F 24 °F 30.27 in ENE 4 mph 5 mph 84% 0.00 in 25 W/m2
09:05 28.3 °F 24.4 °F 30.27 in ENE 4 mph 4 mph 85% 0.00 in 32 W/m2
09:15 28.3 °F 24.4 °F 30.27 in NNE 4 mph 4 mph 85% 0.00 in 40 W/m2
09:25 28.2 °F 24 °F 30.27 in North 5 mph 6 mph 84% 0.00 in 51 W/m2
09:35 28.2 °F 23.7 °F 30.26 in NNE 5 mph 5 mph 83% 0.00 in 65 W/m2
09:45 28.4 °F 24.2 °F 30.26 in NE 5 mph 5 mph 84% 0.00 in 74 W/m2
09:55 28.4 °F 23.9 °F 30.27 in NE 4 mph 4 mph 83% 0.00 in 79 W/m2
10:05 28.5 °F 24.3 °F 30.26 in NNE 5 mph 5 mph 84% 0.00 in 74 W/m2
10:15 28.4 °F 23.9 °F 30.26 in NNW 6 mph 12 mph 83% 0.00 in 77 W/m2
10:25 28.5 °F 24 °F 30.26 in NE 4 mph 11 mph 83% 0.00 in 77 W/m2
10:35 28.5 °F 24 °F 30.26 in ESE 6 mph 6 mph 83% 0.00 in 107 W/m2
10:45 28.5 °F 24 °F 30.25 in NNW 5 mph 5 mph 83% 0.00 in 109 W/m2
10:55 28.5 °F 24 °F 30.25 in North 5 mph 8 mph 83% 0.00 in 127 W/m2
11:05 28.5 °F 24 °F 30.25 in NNE 4 mph 5 mph 83% 0.00 in 137 W/m2
11:15 28.6 °F 23.8 °F 30.25 in NNW 5 mph 6 mph 82% 0.00 in 158 W/m2
11:25 28.8 °F 24 °F 30.25 in NNE 5 mph 5 mph 82% 0.00 in 158 W/m2
11:35 28.9 °F 23.8 °F 30.25 in NNE 4 mph 4 mph 81% 0.00 in 234 W/m2
11:45 29.1 °F 23.7 °F 30.24 in NNE 4 mph 5 mph 80% 0.00 in 183 W/m2
11:55 29.2 °F 24.4 °F 30.24 in NNE 5 mph 5 mph 82% 0.00 in 195 W/m2
12:05 29.3 °F 24.5 °F 30.24 in ENE 4 mph 7 mph 82% 0.00 in 181 W/m2
12:15 29.5 °F 24.4 °F 30.23 in ENE 3 mph 3 mph 81% 0.00 in 179 W/m2
12:25 29.7 °F 24.3 °F 30.23 in NE 4 mph 4 mph 80% 0.00 in 232 W/m2
12:35 30.1 °F 24.7 °F 30.23 in NE 3 mph 3 mph 80% 0.00 in 193 W/m2
12:45 30 °F 24.3 °F 30.23 in North 4 mph 5 mph 79% 0.00 in 236 W/m2
12:55 29.5 °F 23.5 °F 30.22 in NNE 5 mph 9 mph 78% 0.00 in 186 W/m2
13:00 29.4 °F 23.7 °F 30.23 in East 5 mph 6 mph 79% 0.00 in 169 W/m2
13:05 29.3 °F 23.3 °F 30.22 in NNE 5 mph 6 mph 78% 0.00 in 229 W/m2
13:10 29.4 °F 23.7 °F 30.23 in NNE 4 mph 4 mph 79% 0.00 in 185 W/m2
13:15 29.5 °F 24.1 °F 30.22 in NE 4 mph 7 mph 80% 0.00 in 163 W/m2
13:20 29.5 °F 23.8 °F 30.22 in NE 5 mph 5 mph 79% 0.00 in 172 W/m2
13:25 29.5 °F 24.1 °F 30.22 in North 4 mph 5 mph 80% 0.00 in 155 W/m2
13:30 29.6 °F 24.5 °F 30.22 in NNE 4 mph 9 mph 81% 0.00 in 185 W/m2
13:35 29.7 °F 24.3 °F 30.22 in NNE 4 mph 9 mph 80% 0.00 in 167 W/m2
13:40 29.7 °F 24.3 °F 30.22 in NNE 4 mph 4 mph 80% 0.00 in 171 W/m2
13:45 29.7 °F 24.3 °F 30.22 in NNW 5 mph 5 mph 80% 0.00 in 171 W/m2
13:50 29.5 °F 23.8 °F 30.22 in NNE 4 mph 4 mph 79% 0.00 in 239 W/m2
13:55 29.7 °F 24 °F 30.22 in NNE 3 mph 4 mph 79% 0.00 in 156 W/m2
14:00 29.7 °F 23.7 °F 30.21 in North 4 mph 4 mph 78% 0.00 in 127 W/m2
14:05 30 °F 24 °F 30.21 in NE 4 mph 5 mph 78% 0.00 in 360 W/m2
14:10 30.1 °F 23.8 °F 30.21 in North 4 mph 4 mph 77% 0.00 in 202 W/m2
14:15 30.1 °F 24.1 °F 30.21 in NNW 4 mph 4 mph 78% 0.00 in 188 W/m2
14:20 30 °F 24 °F 30.21 in ENE 4 mph 4 mph 78% 0.00 in 171 W/m2
14:25 29.8 °F 24.1 °F 30.21 in NNE 4 mph 4 mph 79% 0.00 in 153 W/m2
14:30 29.6 °F 23.9 °F 30.21 in North 4 mph 4 mph 79% 0.00 in 146 W/m2
14:35 30 °F 24 °F 30.21 in North 4 mph 5 mph 78% 0.00 in 385 W/m2
14:40 30.2 °F 24.5 °F 30.21 in NE 4 mph 5 mph 79% 0.00 in 167 W/m2
14:45 30 °F 24.3 °F 30.21 in NNW 4 mph 5 mph 79% 0.00 in 146 W/m2
14:50 29.8 °F 24.4 °F 30.21 in North 4 mph 5 mph 80% 0.00 in 146 W/m2
14:55 29.6 °F 23.9 °F 30.21 in NNE 5 mph 6 mph 79% 0.00 in 185 W/m2
15:00 29.6 °F 23.9 °F 30.20 in NNE 4 mph 4 mph 79% 0.00 in 128 W/m2
15:05 29.6 °F 24.2 °F 30.21 in NNW 4 mph 6 mph 80% 0.00 in 134 W/m2
15:10 29.6 °F 24.2 °F 30.21 in NNE 4 mph 5 mph 80% 0.00 in 116 W/m2
15:15 29.5 °F 23.8 °F 30.21 in NE 4 mph 5 mph 79% 0.00 in 165 W/m2
15:20 29.5 °F 24.1 °F 30.21 in NE 4 mph 4 mph 80% 0.00 in 121 W/m2
15:25 29.4 °F 24 °F 30.21 in NNE 4 mph 4 mph 80% 0.00 in 105 W/m2
15:30 29.4 °F 24 °F 30.21 in NE 4 mph 4 mph 80% 0.00 in 91 W/m2
15:35 29.3 °F 23.9 °F 30.21 in NE 4 mph 4 mph 80% 0.00 in 104 W/m2
15:40 29.3 °F 23.9 °F 30.21 in NE 4 mph 7 mph 80% 0.00 in 84 W/m2
15:45 29.2 °F 23.8 °F 30.21 in NNE 4 mph 7 mph 80% 0.00 in 104 W/m2
15:50 29.2 °F 24.1 °F 30.21 in North 4 mph 6 mph 81% 0.00 in 232 W/m2
15:55 29.5 °F 24.1 °F 30.21 in NNE 4 mph 6 mph 80% 0.00 in 200 W/m2
16:00 29.5 °F 24.1 °F 30.21 in NNE 4 mph 4 mph 80% 0.00 in 179 W/m2
16:05 29.3 °F 23.6 °F 30.21 in NNE 4 mph 4 mph 79% 0.00 in 169 W/m2
16:15 29.1 °F 23.4 °F 30.21 in ENE 3 mph 5 mph 79% 0.00 in 118 W/m2
16:25 28.9 °F 23.2 °F 30.21 in NNE 4 mph 4 mph 79% 0.00 in 91 W/m2
16:35 28.8 °F 23.4 °F 30.21 in NNE 3 mph 4 mph 80% 0.00 in 39 W/m2
16:45 28.7 °F 23 °F 30.21 in NW 3 mph 3 mph 79% 0.00 in 26 W/m2
16:55 28.8 °F 23.1 °F 30.21 in NNE 3 mph 3 mph 79% 0.00 in 14 W/m2
17:05 28.7 °F 23 °F 30.21 in North 4 mph 5 mph 79% 0.00 in 11 W/m2
17:15 28.6 °F 22.9 °F 30.21 in NE 3 mph 3 mph 79% 0.00 in 5 W/m2
17:25 28.5 °F 22.5 °F 30.21 in NE 4 mph 4 mph 78% 0.00 in 0 W/m2
17:35 28.4 °F 22.4 °F 30.22 in NNE 4 mph 4 mph 78% 0.00 in 0 W/m2
17:45 28.4 °F 22.4 °F 30.22 in NNE 3 mph 5 mph 78% 0.00 in 0 W/m2
17:55 28.5 °F 22.8 °F 30.22 in ENE 4 mph 4 mph 79% 0.00 in 0 W/m2
18:05 28.4 °F 22.4 °F 30.22 in NNE 4 mph 5 mph 78% 0.00 in 0 W/m2
18:15 28.5 °F 22.8 °F 30.22 in North 4 mph 4 mph 79% 0.00 in 0 W/m2
18:25 28.5 °F 23.1 °F 30.22 in North 4 mph 4 mph 80% 0.00 in 0 W/m2
18:35 28.6 °F 23.5 °F 30.22 in NE 4 mph 5 mph 81% 0.00 in 0 W/m2
18:45 28.7 °F 23.6 °F 30.22 in North 4 mph 6 mph 81% 0.00 in 0 W/m2
18:55 28.7 °F 23.6 °F 30.22 in NE 5 mph 5 mph 81% 0.00 in 0 W/m2
19:05 28.7 °F 23.6 °F 30.22 in NNE 5 mph 5 mph 81% 0.00 in 0 W/m2
19:15 28.6 °F 23.2 °F 30.22 in North 4 mph 4 mph 80% 0.00 in 0 W/m2
19:25 28.5 °F 23.1 °F 30.22 in NNW 4 mph 5 mph 80% 0.00 in 0 W/m2
19:35 28.4 °F 23 °F 30.22 in NNE 4 mph 4 mph 80% 0.00 in 0 W/m2
19:45 28.4 °F 23 °F 30.22 in North 5 mph 5 mph 80% 0.00 in 0 W/m2
19:55 28.4 °F 23 °F 30.22 in NNW 4 mph 5 mph 80% 0.00 in 0 W/m2
20:05 28.3 °F 23.2 °F 30.22 in NNE 5 mph 5 mph 81% 0.00 in 0 W/m2
20:15 28.2 °F 22.8 °F 30.22 in NNE 5 mph 5 mph 80% 0.00 in 0 W/m2
20:25 28.2 °F 23.1 °F 30.22 in North 4 mph 4 mph 81% 0.00 in 0 W/m2
20:35 28 °F 22.9 °F 30.22 in NNE 4 mph 4 mph 81% 0.00 in 0 W/m2
20:45 28 °F 23.2 °F 30.22 in NNW 5 mph 11 mph 82% 0.00 in 0 W/m2
20:55 28 °F 23.2 °F 30.22 in NNE 4 mph 4 mph 82% 0.00 in 0 W/m2
21:05 28 °F 23.5 °F 30.22 in North 3 mph 3 mph 83% 0.00 in 0 W/m2
21:15 28 °F 23.5 °F 30.22 in NNE 3 mph 3 mph 83% 0.00 in 0 W/m2
21:25 28.1 °F 23.9 °F 30.21 in NW 4 mph 4 mph 84% 0.00 in 0 W/m2
21:35 28.1 °F 23.9 °F 30.22 in North 4 mph 7 mph 84% 0.00 in 0 W/m2
21:45 28.1 °F 23.9 °F 30.22 in NNE 3 mph 4 mph 84% 0.00 in 0 W/m2
21:55 28.3 °F 24.1 °F 30.22 in North 4 mph 4 mph 84% 0.00 in 0 W/m2
22:05 28.4 °F 24.5 °F 30.22 in North 3 mph 3 mph 85% 0.00 in 0 W/m2
22:15 28.6 °F 24.7 °F 30.22 in North 3 mph 3 mph 85% 0.00 in 0 W/m2
22:25 28.8 °F 24.9 °F 30.21 in North 3 mph 3 mph 85% 0.00 in 0 W/m2
22:35 29 °F 25.1 °F 30.22 in North 3 mph 3 mph 85% 0.00 in 0 W/m2
22:45 29.2 °F 25.5 °F 30.22 in NNW 4 mph 4 mph 86% 0.00 in 0 W/m2
22:55 29.2 °F 25.5 °F 30.21 in NNW 3 mph 3 mph 86% 0.00 in 0 W/m2
23:05 29.2 °F 25.3 °F 30.21 in North 3 mph 6 mph 85% 0.00 in 0 W/m2
23:15 29.2 °F 25.3 °F 30.21 in NNW 3 mph 5 mph 85% 0.00 in 0 W/m2
23:25 29.2 °F 25.3 °F 30.21 in NNW 4 mph 4 mph 85% 0.00 in 0 W/m2
23:35 29.1 °F 25.2 °F 30.21 in North 3 mph 5 mph 85% 0.00 in 0 W/m2
23:45 29.1 °F 25.2 °F 30.20 in North 3 mph 3 mph 85% 0.00 in 0 W/m2
23:55 28.9 °F 25 °F 30.20 in NNE 3 mph 3 mph 85% 0.00 in 0 W/m2
Sand Point, Michigan, USA
Compliments of Weather Underground - 2 mb